Time;durP1;ratioP1;P1;durP2;ratioP2;P2;SDS_P1;SDS_P2;PMS_P1;PMS_P2;Temp;Humidity;BMP_temperature;BMP_pressure;BME280_temperature;BME280_humidity;BME280_pressure;Samples;Min_cycle;Max_cycle;Signal;HPM_P1;HPM_P2
2022/01/05 00:01:05;;;;;;;12.82;2.90;;;;;;;4.16;75.02;99938.75;4864900;29;20037;-71
2022/01/05 00:03:31;;;;;;;11.25;2.60;;;;;;;4.08;76.00;99949.66;4880876;29;20093;-72
2022/01/05 00:05:56;;;;;;;12.95;2.95;;;;;;;4.08;75.78;99955.84;4874505;29;20044;-72
2022/01/05 00:08:24;;;;;;;11.77;2.40;;;;;;;4.02;76.01;99953.97;4864799;29;20471;-72
2022/01/05 00:10:50;;;;;;;14.55;2.80;;;;;;;3.96;76.42;99959.34;4881269;29;20037;-74
2022/01/05 00:13:15;;;;;;;12.60;2.58;;;;;;;3.96;75.98;99952.13;4881040;29;20029;-76
2022/01/05 00:15:40;;;;;;;14.45;3.25;;;;;;;3.97;75.96;99958.28;4880741;29;20025;-75
2022/01/05 00:18:06;;;;;;;11.30;2.72;;;;;;;3.95;76.45;99960.34;4876391;29;20033;-75
2022/01/05 00:20:31;;;;;;;11.15;2.55;;;;;;;3.93;75.99;99962.44;4880973;29;20116;-73
2022/01/05 00:22:56;;;;;;;13.88;2.47;;;;;;;3.89;76.82;99956.63;4881199;29;20118;-75
2022/01/05 00:25:21;;;;;;;13.60;2.80;;;;;;;3.86;76.41;99951.69;4864261;29;20044;-75
2022/01/05 00:27:47;;;;;;;12.40;2.38;;;;;;;3.83;76.56;99952.09;4881264;29;20029;-74
2022/01/05 00:30:12;;;;;;;12.95;2.45;;;;;;;3.76;76.89;99949.41;4880012;29;20354;-74
2022/01/05 00:32:37;;;;;;;12.10;2.88;;;;;;;3.75;76.74;99955.78;4871069;29;20119;-72
2022/01/05 00:35:03;;;;;;;13.07;2.38;;;;;;;3.72;77.23;99957.00;4863542;29;20033;-74
2022/01/05 00:37:28;;;;;;;11.13;2.67;;;;;;;3.67;77.23;99954.13;4867687;29;20042;-72
2022/01/05 00:39:53;;;;;;;11.45;2.42;;;;;;;3.67;76.69;99950.63;4862126;29;20034;-73
2022/01/05 00:42:19;;;;;;;12.05;2.80;;;;;;;3.62;76.41;99955.75;4861877;29;20046;-73
2022/01/05 00:44:44;;;;;;;13.35;2.20;;;;;;;3.61;75.94;99957.59;4861944;29;20116;-73
2022/01/05 00:47:09;;;;;;;14.75;4.32;;;;;;;3.57;76.02;99964.38;4869174;29;20092;-72
2022/01/05 00:49:35;;;;;;;13.98;3.22;;;;;;;3.49;76.38;99968.06;4879827;29;20025;-74
2022/01/05 00:52:00;;;;;;;14.73;3.10;;;;;;;3.46;76.48;99967.66;4880037;29;20512;-72
2022/01/05 00:54:25;;;;;;;17.55;3.38;;;;;;;3.43;75.72;99968.84;4863765;29;20032;-73
2022/01/05 00:56:51;;;;;;;13.57;2.83;;;;;;;3.46;76.08;99983.69;4870133;29;20393;-73
2022/01/05 00:59:16;;;;;;;11.30;2.63;;;;;;;3.45;75.79;99988.19;4861367;29;20036;-72
2022/01/05 01:01:41;;;;;;;13.70;2.58;;;;;;;3.32;76.58;99978.28;4859661;29;20090;-73
2022/01/05 01:04:07;;;;;;;14.88;2.97;;;;;;;3.28;76.67;99989.56;4856443;29;20038;-72
2022/01/05 01:06:32;;;;;;;13.70;3.05;;;;;;;3.29;77.05;99988.53;4859848;29;20093;-73
2022/01/05 01:08:57;;;;;;;17.95;2.75;;;;;;;3.23;76.83;99990.16;4861301;29;20032;-74
2022/01/05 01:11:23;;;;;;;13.23;2.70;;;;;;;3.25;76.32;99985.44;4860217;29;20060;-73
2022/01/05 01:13:49;;;;;;;16.20;3.00;;;;;;;3.22;76.75;99985.84;4861520;29;20037;-75
2022/01/05 01:16:14;;;;;;;10.57;2.65;;;;;;;3.19;76.63;99991.59;4851117;29;20047;-71
2022/01/05 01:18:39;;;;;;;14.10;3.00;;;;;;;3.15;76.58;100001.00;4879425;29;20031;-74
2022/01/05 01:21:05;;;;;;;10.82;2.92;;;;;;;3.15;76.41;99999.16;4879455;29;20037;-73
2022/01/05 01:23:30;;;;;;;16.05;3.25;;;;;;;3.11;76.40;100007.75;4879988;29;20040;-74
2022/01/05 01:25:55;;;;;;;17.20;3.05;;;;;;;3.09;76.32;100007.16;4879609;29;20515;-75
2022/01/05 01:28:21;;;;;;;10.35;2.58;;;;;;;3.05;76.35;100005.88;4879244;29;20440;-72
2022/01/05 01:30:47;;;;;;;9.88;2.60;;;;;;;2.99;76.74;100002.97;4880115;29;20033;-76
2022/01/05 01:33:13;;;;;;;12.10;2.92;;;;;;;2.99;76.81;100005.66;4879539;29;20033;-74
2022/01/05 01:35:38;;;;;;;17.15;3.13;;;;;;;2.99;76.74;99999.50;4874220;29;20048;-75
2022/01/05 01:38:04;;;;;;;13.10;2.90;;;;;;;2.96;76.41;100002.53;4860285;29;20442;-76
2022/01/05 01:40:29;;;;;;;13.18;2.60;;;;;;;2.90;76.37;100006.00;4844109;29;20041;-73
2022/01/05 01:42:54;;;;;;;10.88;2.80;;;;;;;2.89;76.64;100010.53;4871001;29;20124;-74
2022/01/05 01:45:20;;;;;;;13.10;2.60;;;;;;;2.87;76.54;100004.56;4879142;29;20092;-74
2022/01/05 01:47:46;;;;;;;13.68;3.10;;;;;;;2.86;76.63;100004.75;4879382;29;20033;-72
2022/01/05 01:50:11;;;;;;;13.50;2.90;;;;;;;2.84;77.05;100008.44;4877872;29;20044;-75
2022/01/05 01:52:37;;;;;;;14.43;3.20;;;;;;;2.84;76.96;99996.94;4855913;29;20050;-76
2022/01/05 01:55:03;;;;;;;14.68;3.35;;;;;;;2.89;76.18;99997.16;4862559;29;20045;-76
2022/01/05 01:57:38;;;;;;;14.32;2.95;;;;;;;2.86;76.48;100002.91;4879190;29;20037;-74
2022/01/05 02:00:04;;;;;;;13.05;2.60;;;;;;;2.85;75.53;100006.56;4878865;29;20033;-75
2022/01/05 02:02:30;;;;;;;14.38;2.88;;;;;;;2.84;75.05;100007.63;4876647;29;20039;-75
2022/01/05 02:04:56;;;;;;;13.25;2.88;;;;;;;2.77;75.42;100017.44;4879163;29;20033;-74
2022/01/05 02:07:21;;;;;;;11.48;2.88;;;;;;;2.76;75.55;100021.09;4878926;29;20048;-73
2022/01/05 02:09:47;;;;;;;13.80;2.60;;;;;;;2.80;75.05;100006.34;4879395;29;20453;-72
2022/01/05 02:12:12;;;;;;;10.60;2.60;;;;;;;2.72;74.80;100009.16;4878825;29;20085;-75
2022/01/05 02:14:37;;;;;;;13.93;2.83;;;;;;;2.75;75.33;100004.25;4877420;29;20033;-73
2022/01/05 02:17:08;;;;;;;11.88;2.72;;;;;;;2.71;75.18;100007.53;4860274;29;20041;-75
2022/01/05 02:19:34;;;;;;;14.15;2.72;;;;;;;2.73;74.49;100008.94;4860406;29;20037;-72
2022/01/05 02:21:59;;;;;;;18.13;3.10;;;;;;;2.73;74.41;100013.47;4860118;29;20389;-72
2022/01/05 02:24:24;;;;;;;12.07;2.95;;;;;;;2.70;74.55;100005.84;4860131;29;20037;-73
2022/01/05 02:26:50;;;;;;;14.55;3.03;;;;;;;2.67;75.10;100012.41;4859851;29;20385;-72
2022/01/05 02:29:15;;;;;;;9.43;2.53;;;;;;;2.65;74.89;100015.28;4858868;29;20462;-74
2022/01/05 02:31:40;;;;;;;14.70;2.40;;;;;;;2.65;74.68;100015.28;4865481;29;20025;-75
2022/01/05 02:34:05;;;;;;;15.15;2.83;;;;;;;2.59;75.16;100016.03;4878367;29;20077;-74
2022/01/05 02:36:31;;;;;;;12.10;2.42;;;;;;;2.60;75.11;100019.56;4860795;29;20385;-73
2022/01/05 02:38:56;;;;;;;13.02;2.97;;;;;;;2.55;75.65;100025.47;4859863;29;20093;-73
2022/01/05 02:41:22;;;;;;;14.23;2.90;;;;;;;2.51;75.48;100018.88;4859962;29;20048;-75
2022/01/05 02:43:48;;;;;;;13.18;2.78;;;;;;;2.50;75.49;100027.88;4860170;29;20478;-74
2022/01/05 02:46:16;;;;;;;15.90;2.70;;;;;;;2.46;75.70;100027.47;4866262;29;20037;-73
2022/01/05 02:48:42;;;;;;;13.10;2.70;;;;;;;2.48;76.25;100019.25;4879016;29;20047;-76
2022/01/05 02:51:10;;;;;;;14.70;2.83;;;;;;;2.45;76.36;100035.66;4878457;29;20037;-72
2022/01/05 02:53:35;;;;;;;12.15;2.50;;;;;;;2.41;76.34;100037.06;4877263;29;20151;-73
2022/01/05 02:56:01;;;;;;;11.77;2.70;;;;;;;2.40;75.99;100035.38;4862421;29;20112;-75
2022/01/05 02:58:27;;;;;;;13.68;3.05;;;;;;;2.36;76.20;100036.81;4859800;29;20121;-71
2022/01/05 03:00:52;;;;;;;12.80;2.97;;;;;;;2.30;77.08;100047.22;4857714;29;20693;-75
2022/01/05 03:03:17;;;;;;;19.73;3.00;;;;;;;2.32;76.15;100049.69;4859900;29;20402;-75
2022/01/05 03:05:43;;;;;;;12.88;2.90;;;;;;;2.29;76.03;100053.59;4860000;29;20416;-71
2022/01/05 03:08:09;;;;;;;14.52;3.10;;;;;;;2.26;76.82;100048.63;4859754;29;20037;-73
2022/01/05 03:10:34;;;;;;;13.07;2.67;;;;;;;2.28;76.15;100051.94;4858746;29;20045;-75
2022/01/05 03:12:59;;;;;;;10.90;2.85;;;;;;;2.27;76.30;100050.28;4877732;29;20187;-75
2022/01/05 03:15:25;;;;;;;12.65;2.70;;;;;;;2.28;76.58;100059.94;4864657;29;20057;-75
2022/01/05 03:17:50;;;;;;;14.95;2.38;;;;;;;2.24;76.24;100064.00;4859819;29;20112;-75
2022/01/05 03:20:19;;;;;;;15.90;2.67;;;;;;;2.20;76.75;100062.72;4859839;29;20042;-72
2022/01/05 03:22:45;;;;;;;15.93;3.13;;;;;;;2.17;76.30;100076.44;4860092;29;20052;-72
2022/01/05 03:25:18;;;;;;;14.43;2.92;;;;;;;2.13;76.87;100081.34;4859764;29;20466;-75
2022/01/05 03:27:46;;;;;;;11.45;2.75;;;;;;;2.11;77.19;100094.06;4869298;29;20061;-75
2022/01/05 03:30:14;;;;;;;12.35;2.50;;;;;;;2.14;77.07;100079.50;4878372;29;20516;-73
2022/01/05 03:32:57;;;;;;;14.25;3.08;;;;;;;2.10;77.28;100083.56;4878276;29;20036;-74
2022/01/05 03:35:22;;;;;;;14.90;3.40;;;;;;;2.06;77.18;100076.94;4877832;29;20041;-72
2022/01/05 03:37:48;;;;;;;18.00;3.20;;;;;;;2.08;76.69;100088.25;4878489;29;20029;-73
2022/01/05 03:40:13;;;;;;;12.02;2.40;;;;;;;2.05;77.20;100077.97;4880951;29;20436;-72
2022/01/05 03:42:38;;;;;;;14.23;2.92;;;;;;;2.08;76.73;100091.78;4863036;29;20041;-76
2022/01/05 03:45:04;;;;;;;10.25;2.60;;;;;;;2.06;76.93;100096.44;4846429;29;20037;-74
2022/01/05 03:47:29;;;;;;;20.00;2.67;;;;;;;2.03;76.38;100090.69;4862765;29;20033;-72
2022/01/05 03:49:54;;;;;;;15.10;3.00;;;;;;;2.05;77.06;100093.97;4862915;29;20402;-73
2022/01/05 03:52:19;;;;;;;15.13;2.53;;;;;;;2.11;75.91;100093.22;4862309;29;20128;-73
2022/01/05 03:54:45;;;;;;;9.07;2.53;;;;;;;2.07;76.10;100091.97;4863120;29;20466;-74
2022/01/05 03:57:10;;;;;;;13.05;2.67;;;;;;;2.07;76.53;100099.97;4863553;29;20046;-73
2022/01/05 03:59:35;;;;;;;13.20;2.47;;;;;;;2.12;76.48;100095.69;4862476;29;20040;-74
2022/01/05 04:02:01;;;;;;;14.65;3.35;;;;;;;2.17;75.37;100096.97;4860519;29;20034;-74
2022/01/05 04:04:26;;;;;;;9.60;2.63;;;;;;;2.13;75.91;100093.88;4869268;29;20036;-73
2022/01/05 04:06:51;;;;;;;17.13;2.80;;;;;;;2.12;76.12;100087.69;4881137;29;20042;-72
2022/01/05 04:09:16;;;;;;;21.65;3.30;;;;;;;2.17;75.48;100097.81;4881263;29;20052;-72
2022/01/05 04:11:42;;;;;;;11.93;3.05;;;;;;;2.23;75.43;100093.56;4881225;29;20033;-74
2022/01/05 04:14:08;;;;;;;12.52;3.15;;;;;;;2.18;75.36;100094.13;4864487;29;20032;-74
2022/01/05 04:16:33;;;;;;;14.75;3.00;;;;;;;2.16;75.78;100095.31;4870188;29;20047;-72
2022/01/05 04:18:58;;;;;;;11.48;2.47;;;;;;;2.18;75.53;100102.13;4862317;29;20030;-74
2022/01/05 04:21:23;;;;;;;18.05;2.88;;;;;;;2.19;74.93;100101.13;4862704;29;20042;-72
2022/01/05 04:23:49;;;;;;;17.08;3.20;;;;;;;2.17;75.08;100099.66;4862740;29;20037;-74
2022/01/05 04:26:14;;;;;;;20.25;3.10;;;;;;;2.15;75.18;100105.19;4862464;29;20033;-74
2022/01/05 04:29:11;;;;;;;15.30;2.85;;;;;;;2.12;74.83;100098.38;4862429;29;20033;-76
2022/01/05 04:31:35;;;;;;;13.40;2.97;;;;;;;2.11;74.91;100106.56;4862133;29;20112;-72
2022/01/05 04:34:00;;;;;;;14.73;2.90;;;;;;;2.07;75.53;100113.31;4862311;29;20030;-74
2022/01/05 04:36:26;;;;;;;21.80;3.42;;;;;;;2.03;76.12;100109.34;4865478;29;20037;-74
2022/01/05 04:38:52;;;;;;;15.77;3.15;;;;;;;2.05;75.76;100120.66;4862103;29;20579;-74
2022/01/05 04:41:17;;;;;;;16.92;3.05;;;;;;;2.05;75.93;100112.66;4860620;29;20040;-76
2022/01/05 04:43:43;;;;;;;19.13;3.40;;;;;;;2.01;76.51;100122.88;4862076;29;20045;-75
2022/01/05 04:46:08;;;;;;;18.10;3.95;;;;;;;2.14;75.96;100124.88;4861842;29;20029;-73
2022/01/05 04:48:33;;;;;;;18.48;3.13;;;;;;;2.06;76.12;100127.66;4862164;29;20041;-76
2022/01/05 04:50:59;;;;;;;21.38;4.65;;;;;;;2.06;76.54;100130.34;4868719;29;20396;-72
2022/01/05 04:53:24;;;;;;;14.70;3.83;;;;;;;2.05;76.90;100126.81;4880549;29;20056;-72
2022/01/05 04:55:49;;;;;;;23.30;3.72;;;;;;;2.14;76.97;100124.88;4870732;29;20033;-70
2022/01/05 04:58:14;;;;;;;19.33;3.47;;;;;;;2.16;76.45;100122.84;4861429;29;20082;-72
2022/01/05 05:00:40;;;;;;;16.83;3.65;;;;;;;2.16;76.95;100122.84;4859562;29;20827;-75
2022/01/05 05:03:05;;;;;;;22.40;3.88;;;;;;;2.19;77.25;100129.63;4860227;29;20036;-71
2022/01/05 05:05:31;;;;;;;16.60;4.07;;;;;;;2.26;77.13;100133.22;4864787;29;20575;-74
2022/01/05 05:07:57;;;;;;;19.58;3.88;;;;;;;2.26;77.42;100134.03;4878952;29;20093;-72
2022/01/05 05:10:23;;;;;;;16.13;3.25;;;;;;;2.29;77.30;100139.03;4863281;29;20075;-73
2022/01/05 05:12:48;;;;;;;16.83;2.85;;;;;;;2.30;77.45;100137.19;4880230;29;20499;-75
2022/01/05 05:15:14;;;;;;;14.65;3.13;;;;;;;2.35;76.83;100137.44;4855757;29;20492;-72
2022/01/05 05:17:39;;;;;;;13.88;2.75;;;;;;;2.38;76.70;100139.72;4861444;29;20036;-72
2022/01/05 05:20:05;;;;;;;17.38;3.60;;;;;;;2.32;77.10;100132.47;4844913;29;20399;-75
2022/01/05 05:22:30;;;;;;;17.35;3.42;;;;;;;2.33;77.52;100141.31;4861512;29;20030;-76
2022/01/05 05:24:55;;;;;;;15.88;3.22;;;;;;;2.33;77.55;100139.47;4861409;29;20056;-76
2022/01/05 05:27:21;;;;;;;16.70;3.20;;;;;;;2.40;76.98;100139.53;4860954;29;20042;-71
2022/01/05 05:29:46;;;;;;;27.08;3.65;;;;;;;2.30;78.26;100138.00;4877553;29;20458;-72
2022/01/05 05:32:11;;;;;;;15.20;3.22;;;;;;;2.37;77.86;100134.56;4879644;29;20458;-71
2022/01/05 05:34:37;;;;;;;14.88;2.97;;;;;;;2.33;78.42;100138.66;4874656;29;20038;-71
2022/01/05 05:37:02;;;;;;;17.52;3.38;;;;;;;2.35;77.44;100133.94;4861016;29;20031;-74
2022/01/05 05:39:27;;;;;;;17.13;3.60;;;;;;;2.29;77.98;100128.34;4843898;29;20105;-75
2022/01/05 05:41:52;;;;;;;16.23;3.47;;;;;;;2.32;77.97;100131.66;4860687;29;20064;-73
2022/01/05 05:44:18;;;;;;;19.33;3.63;;;;;;;2.29;78.29;100124.84;4873818;29;20437;-72
2022/01/05 05:46:43;;;;;;;13.77;3.17;;;;;;;2.28;78.32;100126.69;4878181;29;20132;-73
2022/01/05 05:49:09;;;;;;;15.45;3.40;;;;;;;2.26;78.28;100133.22;4862656;29;20132;-74
2022/01/05 05:51:34;;;;;;;15.52;3.42;;;;;;;2.32;77.62;100137.00;4878972;29;20429;-75
2022/01/05 05:53:59;;;;;;;22.23;3.55;;;;;;;2.28;78.44;100148.03;4873220;29;20033;-73
2022/01/05 05:56:25;;;;;;;17.42;3.22;;;;;;;2.29;78.47;100147.03;4878985;29;20031;-73
2022/01/05 05:58:51;;;;;;;14.38;2.83;;;;;;;2.27;78.72;100154.38;4877833;29;20033;-76
2022/01/05 06:01:16;;;;;;;17.20;3.20;;;;;;;2.29;78.63;100149.72;4876315;29;20040;-74
2022/01/05 06:03:42;;;;;;;17.40;3.60;;;;;;;2.28;78.49;100149.88;4879203;29;20517;-72
2022/01/05 06:06:07;;;;;;;15.15;3.50;;;;;;;2.26;78.78;100152.72;4879145;29;20103;-73
2022/01/05 06:08:32;;;;;;;14.52;3.05;;;;;;;2.29;79.18;100154.19;4878646;29;20126;-74
2022/01/05 06:10:57;;;;;;;21.10;3.50;;;;;;;2.29;79.13;100149.72;4878953;29;20037;-75
2022/01/05 06:13:23;;;;;;;21.33;3.95;;;;;;;2.28;79.21;100153.38;4863267;29;20053;-73
2022/01/05 06:15:48;;;;;;;18.88;3.47;;;;;;;2.25;78.92;100148.44;4877714;29;20070;-74
2022/01/05 06:18:13;;;;;;;19.35;3.95;;;;;;;2.26;79.47;100152.72;4878932;29;20123;-75
2022/01/05 06:20:38;;;;;;;17.73;3.33;;;;;;;2.24;79.52;100157.44;4862046;29;20396;-74
2022/01/05 06:23:04;;;;;;;17.27;3.00;;;;;;;2.26;79.27;100160.75;4878940;29;20047;-75
2022/01/05 06:25:29;;;;;;;18.65;3.90;;;;;;;2.22;79.49;100159.47;4876716;29;20037;-71
2022/01/05 06:27:54;;;;;;;23.00;3.55;;;;;;;2.23;79.15;100161.13;4860362;29;20044;-75
2022/01/05 06:30:20;;;;;;;17.38;4.45;;;;;;;2.23;80.02;100169.13;4860089;29;20033;-76
2022/01/05 06:32:46;;;;;;;20.80;3.53;;;;;;;2.23;79.56;100169.13;4860940;29;20033;-72
2022/01/05 06:35:13;;;;;;;15.40;3.47;;;;;;;2.24;79.84;100169.97;4878979;29;20033;-73
2022/01/05 06:37:38;;;;;;;17.27;3.40;;;;;;;2.25;80.35;100175.13;4878380;29;20488;-73
2022/01/05 06:40:04;;;;;;;19.27;3.85;;;;;;;2.24;79.74;100184.13;4877395;29;20068;-74
2022/01/05 06:42:29;;;;;;;17.60;3.50;;;;;;;2.24;80.02;100189.47;4859620;29;20033;-75
2022/01/05 06:44:54;;;;;;;14.88;3.70;;;;;;;2.28;80.00;100196.09;4860013;29;20029;-74
2022/01/05 06:47:19;;;;;;;18.38;4.00;;;;;;;2.25;80.49;100199.16;4877857;29;20032;-73
2022/01/05 06:49:45;;;;;;;20.00;3.78;;;;;;;2.28;80.21;100201.44;4878840;29;20476;-72
2022/01/05 06:52:11;;;;;;;20.63;4.22;;;;;;;2.28;80.56;100204.13;4878667;29;20140;-76
2022/01/05 06:54:38;;;;;;;17.38;4.03;;;;;;;2.30;80.67;100204.75;4878534;29;20033;-74
2022/01/05 06:57:03;;;;;;;18.42;3.80;;;;;;;2.24;80.90;100197.47;4861861;29;20025;-72
2022/01/05 06:59:29;;;;;;;15.50;3.97;;;;;;;2.30;80.33;100210.09;4878428;29;20425;-73
2022/01/05 07:01:54;;;;;;;17.23;3.58;;;;;;;2.29;80.63;100211.13;4859085;29;20040;-72
2022/01/05 07:04:19;;;;;;;16.02;3.60;;;;;;;2.30;80.37;100218.09;4878467;29;20033;-73
2022/01/05 07:06:45;;;;;;;22.63;4.13;;;;;;;2.35;80.19;100227.41;4862382;29;20097;-71
2022/01/05 07:09:10;;;;;;;24.85;4.32;;;;;;;2.34;80.15;100231.91;4859682;29;20462;-72
2022/01/05 07:11:35;;;;;;;19.35;4.53;;;;;;;2.33;80.80;100235.59;4859500;29;20064;-75
2022/01/05 07:14:01;;;;;;;17.63;3.65;;;;;;;2.35;81.20;100230.06;4869640;29;20047;-75
2022/01/05 07:16:31;;;;;;;18.50;4.15;;;;;;;2.40;80.58;100233.00;4880287;29;20044;-73
2022/01/05 07:18:57;;;;;;;22.20;3.85;;;;;;;2.41;80.47;100232.00;4881958;29;20065;-74
2022/01/05 07:21:24;;;;;;;15.90;3.75;;;;;;;2.40;80.88;100235.66;4881467;29;20033;-74
2022/01/05 07:23:52;;;;;;;19.77;4.13;;;;;;;2.39;81.07;100234.03;4881949;29;20044;-73
2022/01/05 07:26:19;;;;;;;25.38;4.88;;;;;;;2.43;80.86;100246.81;4853977;29;20033;-73
2022/01/05 07:28:45;;;;;;;18.65;4.05;;;;;;;2.46;80.99;100240.25;4863107;29;20036;-72
2022/01/05 07:31:10;;;;;;;15.38;3.78;;;;;;;2.44;81.19;100242.28;4846256;29;20034;-73
2022/01/05 07:33:36;;;;;;;22.15;4.22;;;;;;;2.46;81.38;100248.25;4862913;29;20120;-73
2022/01/05 07:36:01;;;;;;;15.05;3.78;;;;;;;2.46;81.71;100254.44;4872270;29;20044;-73
2022/01/05 07:38:27;;;;;;;20.90;4.13;;;;;;;2.49;80.84;100247.88;4864556;29;20062;-73
2022/01/05 07:40:52;;;;;;;18.10;4.03;;;;;;;2.48;81.30;100254.28;4879362;29;20393;-74
2022/01/05 07:43:17;;;;;;;18.85;3.92;;;;;;;2.53;81.34;100257.19;4880343;29;20033;-72
2022/01/05 07:45:43;;;;;;;21.70;3.47;;;;;;;2.54;81.85;100264.19;4880424;29;20029;-73
2022/01/05 07:48:08;;;;;;;20.55;3.42;;;;;;;2.55;81.40;100262.34;4881576;29;20041;-72
2022/01/05 07:50:33;;;;;;;18.95;3.75;;;;;;;2.63;81.90;100256.91;4881224;29;20029;-73
2022/01/05 07:53:04;;;;;;;24.08;3.75;;;;;;;2.70;81.17;100273.00;4870404;29;20063;-73
2022/01/05 07:55:30;;;;;;;22.38;3.97;;;;;;;2.71;81.68;100277.34;4862535;29;20039;-73
2022/01/05 07:57:55;;;;;;;18.10;3.63;;;;;;;2.78;81.43;100276.41;4862747;29;20055;-73
2022/01/05 08:00:21;;;;;;;17.08;3.35;;;;;;;2.82;81.30;100282.19;4845869;29;20539;-73
2022/01/05 08:02:46;;;;;;;16.13;3.50;;;;;;;2.86;81.25;100286.16;4860301;29;20132;-73
2022/01/05 08:05:11;;;;;;;24.00;3.78;;;;;;;2.89;81.10;100287.63;4868652;29;20100;-73
2022/01/05 08:07:37;;;;;;;16.13;3.70;;;;;;;2.89;81.67;100290.31;4864100;29;20041;-72
2022/01/05 08:10:02;;;;;;;20.00;3.70;;;;;;;2.95;81.73;100300.25;4881079;29;20033;-73
2022/01/05 08:12:28;;;;;;;16.88;3.92;;;;;;;2.96;81.80;100294.69;4880606;29;20040;-74
2022/01/05 08:14:53;;;;;;;21.15;3.40;;;;;;;3.04;81.38;100303.63;4880669;29;20029;-74
2022/01/05 08:17:19;;;;;;;20.60;3.70;;;;;;;3.10;81.26;100300.19;4870288;29;20045;-74
2022/01/05 08:19:44;;;;;;;18.95;3.35;;;;;;;3.15;81.10;100300.44;4862056;29;20044;-74
2022/01/05 08:22:10;;;;;;;20.83;3.72;;;;;;;3.23;80.95;100305.69;4862299;29;20169;-74
2022/01/05 08:24:35;;;;;;;17.40;3.15;;;;;;;3.33;80.37;100300.00;4865050;29;20032;-76
2022/01/05 08:27:00;;;;;;;17.85;3.58;;;;;;;3.38;80.16;100302.94;4880744;29;20115;-75
2022/01/05 08:29:25;;;;;;;15.25;3.28;;;;;;;3.48;79.79;100302.63;4880482;29;20088;-74
2022/01/05 08:31:51;;;;;;;16.30;3.15;;;;;;;3.42;80.41;100311.41;4878826;29;20053;-74
2022/01/05 08:34:16;;;;;;;15.68;2.90;;;;;;;3.45;80.12;100308.34;4870415;29;20373;-74
2022/01/05 08:36:41;;;;;;;17.38;4.20;;;;;;;3.49;79.86;100301.63;4863628;29;20049;-74
2022/01/05 08:39:07;;;;;;;15.85;3.40;;;;;;;3.53;79.55;100301.03;4880399;29;20040;-74
2022/01/05 08:41:32;;;;;;;22.42;3.72;;;;;;;3.59;79.03;100298.59;4879043;29;20129;-74
2022/01/05 08:43:57;;;;;;;13.45;3.17;;;;;;;3.67;79.16;100307.31;4862312;29;20473;-74
2022/01/05 08:46:23;;;;;;;19.98;3.88;;;;;;;3.64;79.40;100314.88;4869593;29;20048;-75
2022/01/05 08:48:48;;;;;;;19.25;3.47;;;;;;;3.75;78.75;100302.84;4879098;29;20044;-74
2022/01/05 08:51:13;;;;;;;14.52;2.97;;;;;;;3.77;78.42;100311.50;4862847;29;20127;-74
2022/01/05 08:53:39;;;;;;;21.80;4.07;;;;;;;3.75;78.92;100311.69;4880077;29;20057;-75
2022/01/05 08:56:05;;;;;;;14.07;2.83;;;;;;;3.81;78.93;100310.09;4880235;29;20088;-75
2022/01/05 08:58:30;;;;;;;11.27;3.10;;;;;;;3.77;78.27;100309.66;4880000;29;20029;-74
2022/01/05 09:00:55;;;;;;;19.58;3.40;;;;;;;3.81;78.59;100308.25;4875271;29;20462;-75
2022/01/05 09:03:20;;;;;;;20.50;3.50;;;;;;;3.93;77.53;100318.44;4879883;29;20029;-75
2022/01/05 09:05:46;;;;;;;17.05;2.97;;;;;;;3.84;78.46;100323.09;4877947;29;20047;-76
2022/01/05 09:08:13;;;;;;;22.35;3.67;;;;;;;3.85;79.21;100347.00;4878967;29;20132;-74
2022/01/05 09:10:39;;;;;;;18.52;3.58;;;;;;;3.90;78.52;100336.53;4878615;29;20036;-75
2022/01/05 09:13:04;;;;;;;16.75;3.03;;;;;;;3.94;78.48;100336.97;4861827;29;20140;-75
2022/01/05 09:15:30;;;;;;;17.75;3.20;;;;;;;4.07;77.55;100336.25;4866898;29;20037;-75
2022/01/05 09:17:55;;;;;;;13.00;2.83;;;;;;;4.13;76.95;100332.78;4862521;29;20097;-74
2022/01/05 09:20:23;;;;;;;13.55;3.35;;;;;;;4.07;77.63;100339.75;4878511;29;20036;-75
2022/01/05 09:22:49;;;;;;;18.77;3.45;;;;;;;4.07;77.81;100331.69;4851016;29;20037;-75
2022/01/05 09:25:18;;;;;;;17.63;3.05;;;;;;;4.13;78.09;100334.63;4845433;29;20060;-75
2022/01/05 09:27:45;;;;;;;16.23;3.10;;;;;;;4.20;77.20;100338.19;4860778;29;20030;-74
2022/01/05 09:30:12;;;;;;;19.80;3.58;;;;;;;4.21;76.92;100345.19;4860885;29;20112;-74
2022/01/05 09:32:38;;;;;;;16.27;3.22;;;;;;;4.29;76.78;100346.88;4869952;29;20040;-77
2022/01/05 09:35:05;;;;;;;14.45;2.13;;;;;;;4.36;75.49;100359.31;4862770;29;20488;-73
2022/01/05 09:37:35;;;;;;;14.05;2.70;;;;;;;4.31;77.21;100374.31;4877121;29;20045;-73
2022/01/05 09:42:45;;;;;;;16.02;3.03;;;;;;;4.34;77.88;100366.72;4860767;29;20044;-73
2022/01/05 09:45:22;;;;;;;16.60;3.03;;;;;;;4.50;76.90;100372.78;4877149;29;20041;-73
2022/01/05 09:48:18;;;;;;;15.45;3.15;;;;;;;4.31;78.26;100393.91;4878554;29;20037;-73
2022/01/05 09:51:06;;;;;;;18.48;3.10;;;;;;;4.39;77.68;100384.88;4865164;29;20025;-73
2022/01/05 09:53:33;;;;;;;14.23;2.78;;;;;;;4.30;78.01;100397.59;4861866;29;20545;-73
2022/01/05 09:55:58;;;;;;;16.45;2.83;;;;;;;4.38;77.88;100384.06;4892164;29;20385;-74
2022/01/05 09:58:24;;;;;;;20.70;3.47;;;;;;;4.34;78.47;100380.09;4845568;29;20041;-74
2022/01/05 10:00:52;;;;;;;21.85;3.05;;;;;;;4.26;78.83;100386.44;4865566;29;20216;-73
2022/01/05 10:03:18;;;;;;;13.65;2.78;;;;;;;4.32;78.72;100387.53;4872433;29;20025;-74
2022/01/05 10:05:44;;;;;;;16.73;3.35;;;;;;;4.32;79.43;100379.50;4878562;29;20048;-74
2022/01/05 10:08:10;;;;;;;18.55;3.63;;;;;;;4.29;79.52;100389.75;4879296;29;20079;-75
2022/01/05 10:10:36;;;;;;;19.88;3.55;;;;;;;4.30;79.67;100389.53;4878572;29;20032;-74
2022/01/05 10:13:02;;;;;;;13.23;2.33;;;;;;;4.35;78.89;100389.81;4878917;29;20029;-75
2022/01/05 10:15:28;;;;;;;16.98;3.45;;;;;;;4.43;78.65;100394.19;4878996;29;20060;-74
2022/01/05 10:18:13;;;;;;;17.45;3.63;;;;;;;4.52;78.72;100394.88;4878601;29;20037;-74
2022/01/05 10:20:55;;;;;;;15.38;3.40;;;;;;;4.50;79.73;100397.75;4846049;29;20045;-73
2022/01/05 10:23:38;;;;;;;26.17;3.80;;;;;;;4.54;78.66;100398.16;4871333;29;20061;-74
2022/01/05 10:26:38;;;;;;;18.75;2.80;;;;;;;4.59;78.69;100409.16;4878857;29;20033;-73
2022/01/05 10:29:17;;;;;;;18.23;3.33;;;;;;;4.64;78.92;100406.69;4879212;29;20029;-74
2022/01/05 10:31:50;;;;;;;14.88;3.72;;;;;;;4.63;78.77;100413.06;4851117;29;20048;-77
2022/01/05 10:34:20;;;;;;;19.60;3.03;;;;;;;4.79;77.79;100402.03;4875617;29;20045;-76
2022/01/05 10:36:53;;;;;;;16.23;2.97;;;;;;;4.85;78.27;100413.00;4877671;29;20397;-77
2022/01/05 10:39:27;;;;;;;15.40;3.03;;;;;;;4.89;77.34;100414.25;4878004;29;20076;-74
2022/01/05 10:41:53;;;;;;;17.33;3.10;;;;;;;4.90;76.76;100403.31;4870764;29;20129;-74
2022/01/05 10:44:20;;;;;;;15.57;3.50;;;;;;;4.88;77.29;100417.97;4867722;29;20123;-77
2022/01/05 10:46:52;;;;;;;21.25;3.60;;;;;;;5.00;77.22;100428.94;4878685;29;20029;-74
2022/01/05 10:49:38;;;;;;;16.10;4.03;;;;;;;5.04;76.54;100425.69;4882333;29;20086;-74
2022/01/05 10:52:33;;;;;;;16.75;3.30;;;;;;;5.04;76.66;100438.25;4863711;29;20058;-74
2022/01/05 10:55:15;;;;;;;16.17;3.28;;;;;;;5.06;76.14;100442.41;4863598;29;20030;-72
2022/01/05 10:57:59;;;;;;;17.85;3.70;;;;;;;5.08;76.34;100447.56;4847005;29;20044;-73
2022/01/05 11:00:42;;;;;;;13.88;3.03;;;;;;;5.15;76.56;100448.44;4871820;29;20045;-73
2022/01/05 11:03:24;;;;;;;17.95;3.22;;;;;;;5.19;75.51;100452.34;4859566;29;20076;-74
2022/01/05 11:06:08;;;;;;;;;;;;;;;5.36;75.51;100460.06;4882474;29;20045;-74
2022/01/05 11:08:54;;;;;;;17.85;3.60;;;;;;;5.24;75.65;100444.53;4885000;29;19919;-75
2022/01/05 11:11:43;;;;;;;22.27;4.10;;;;;;;5.38;75.09;100463.38;4854329;29;20074;-74
2022/01/05 11:14:14;;;;;;;19.05;3.38;;;;;;;5.24;74.99;100467.84;4863353;29;20474;-74
2022/01/05 11:16:42;;;;;;;23.25;3.70;;;;;;;5.20;76.29;100467.44;4864997;29;20077;-74
2022/01/05 11:19:10;;;;;;;20.73;4.40;;;;;;;5.27;75.85;100467.47;4881983;29;20039;-73
2022/01/05 11:21:40;;;;;;;17.15;3.30;;;;;;;5.33;76.08;100472.03;4881722;29;20037;-72
2022/01/05 11:24:06;;;;;;;15.77;3.10;;;;;;;5.23;76.49;100474.25;4882113;29;20032;-76
2022/01/05 11:26:35;;;;;;;14.98;3.50;;;;;;;5.22;76.08;100459.19;4865195;29;20148;-80
2022/01/05 11:29:03;;;;;;;23.05;4.18;;;;;;;5.19;76.43;100465.75;4881884;29;20464;-75